Time;durP1;ratioP1;P1;durP2;ratioP2;P2;SDS_P1;SDS_P2;PMS_P1;PMS_P2;Temp;Humidity;BMP_temperature;BMP_pressure;BME280_temperature;BME280_humidity;BME280_pressure;Samples;Min_cycle;Max_cycle;Signal;HPM_P1;HPM_P2
2022/12/20 00:01:32;;;;;;;8.33;7.60;;;21.50;52.70;;;;;;4885874;29;20469;-62
2022/12/20 00:04:04;;;;;;;8.00;7.30;;;21.50;52.70;;;;;;4896136;29;20464;-61
2022/12/20 00:06:34;;;;;;;8.53;7.83;;;21.50;52.70;;;;;;4907588;29;20454;-60
2022/12/20 00:09:04;;;;;;;7.47;6.77;;;21.50;52.70;;;;;;4897186;29;20461;-61
2022/12/20 00:11:32;;;;;;;8.47;7.70;;;21.50;52.70;;;;;;4896740;29;20457;-60
2022/12/20 00:14:00;;;;;;;9.00;8.20;;;21.40;52.70;;;;;;4894773;29;20532;-60
2022/12/20 00:16:30;;;;;;;8.20;7.50;;;21.50;52.70;;;;;;4885472;29;20475;-61
2022/12/20 00:19:00;;;;;;;8.40;7.70;;;21.50;52.70;;;;;;4897889;29;20574;-60
2022/12/20 00:21:30;;;;;;;8.87;8.07;;;21.50;52.70;;;;;;4898712;29;20734;-60
2022/12/20 00:23:58;;;;;;;8.93;8.13;;;21.50;52.60;;;;;;4897157;29;20435;-59
2022/12/20 00:26:28;;;;;;;9.00;8.10;;;21.50;52.60;;;;;;4896484;29;20501;-60
2022/12/20 00:28:57;;;;;;;8.13;7.50;;;21.50;52.60;;;;;;4885653;29;20549;-59
2022/12/20 00:31:26;;;;;;;9.53;8.63;;;21.50;52.50;;;;;;4890848;29;20564;-60
2022/12/20 00:33:58;;;;;;;9.27;8.43;;;21.50;52.50;;;;;;4897370;29;20531;-60
2022/12/20 00:36:27;;;;;;;8.90;8.00;;;21.50;52.50;;;;;;4883267;29;20553;-60
2022/12/20 00:38:57;;;;;;;9.30;8.43;;;21.50;52.50;;;;;;4884416;29;20909;-61
2022/12/20 00:41:26;;;;;;;8.80;8.00;;;21.50;52.40;;;;;;4887110;29;20519;-59
2022/12/20 00:43:54;;;;;;;9.10;8.30;;;21.50;52.40;;;;;;4884196;29;20458;-60
2022/12/20 00:46:23;;;;;;;8.17;7.50;;;21.50;52.40;;;;;;4884523;29;20486;-60
2022/12/20 00:48:53;;;;;;;8.60;7.90;;;21.50;52.30;;;;;;4882220;29;20477;-60
2022/12/20 00:51:26;;;;;;;10.43;9.53;;;21.50;52.30;;;;;;4878517;29;20491;-61
2022/12/20 00:53:55;;;;;;;7.70;7.03;;;21.50;52.30;;;;;;4880481;29;20779;-59
2022/12/20 00:56:23;;;;;;;9.07;8.27;;;21.50;52.30;;;;;;4881286;29;20557;-60
2022/12/20 00:58:57;;;;;;;10.30;9.30;;;21.50;52.30;;;;;;4878487;29;20476;-60
2022/12/20 01:01:29;;;;;;;8.10;7.40;;;21.50;52.30;;;;;;4878095;29;20469;-60
2022/12/20 01:03:58;;;;;;;8.20;7.47;;;21.40;52.30;;;;;;4880327;29;20453;-60
2022/12/20 01:06:28;;;;;;;8.87;8.07;;;21.40;52.30;;;;;;4884303;29;20992;-60
2022/12/20 01:08:56;;;;;;;8.83;7.97;;;21.40;52.30;;;;;;4878557;29;20489;-61
2022/12/20 01:11:26;;;;;;;7.83;7.20;;;21.40;52.30;;;;;;4884129;29;20477;-62
2022/12/20 01:13:57;;;;;;;8.97;8.03;;;21.40;52.30;;;;;;4879933;29;20545;-60
2022/12/20 01:16:27;;;;;;;9.07;8.20;;;21.40;52.30;;;;;;4885229;29;21085;-64
2022/12/20 01:18:55;;;;;;;7.80;7.07;;;21.40;52.30;;;;;;4884378;29;20482;-63
2022/12/20 01:21:26;;;;;;;8.70;8.00;;;21.40;52.30;;;;;;4893067;29;20465;-63
2022/12/20 01:23:56;;;;;;;9.27;8.47;;;21.40;52.30;;;;;;4881068;29;20472;-65
2022/12/20 01:26:27;;;;;;;8.27;7.57;;;21.40;52.30;;;;;;4879327;29;20478;-63
2022/12/20 01:28:57;;;;;;;8.90;8.00;;;21.40;52.30;;;;;;4880404;29;20501;-63
2022/12/20 01:31:27;;;;;;;8.50;7.80;;;21.40;52.30;;;;;;4889830;29;20557;-62
2022/12/20 01:33:56;;;;;;;9.07;8.17;;;21.40;52.30;;;;;;4897171;29;20539;-63
2022/12/20 01:36:28;;;;;;;8.40;7.60;;;21.40;52.30;;;;;;4895345;29;20941;-63
2022/12/20 01:38:59;;;;;;;8.63;7.83;;;21.40;52.30;;;;;;4887222;29;20485;-63
2022/12/20 01:41:29;;;;;;;7.87;7.17;;;21.40;52.30;;;;;;4890164;29;20585;-62
2022/12/20 01:44:01;;;;;;;7.87;7.27;;;21.40;52.30;;;;;;4885802;29;20455;-63
2022/12/20 01:46:33;;;;;;;9.30;8.50;;;21.40;52.30;;;;;;4891700;29;20493;-63
2022/12/20 01:49:05;;;;;;;9.10;8.30;;;21.40;52.30;;;;;;4888583;29;20455;-62
2022/12/20 01:51:40;;;;;;;9.03;8.23;;;21.40;52.30;;;;;;4891353;29;20536;-63
2022/12/20 01:54:15;;;;;;;8.90;8.00;;;21.40;52.30;;;;;;4904650;29;20953;-62
2022/12/20 01:56:48;;;;;;;8.60;7.70;;;21.40;52.20;;;;;;4890443;29;20463;-63
2022/12/20 01:59:16;;;;;;;9.00;8.20;;;21.40;52.20;;;;;;4884517;29;20483;-63
2022/12/20 02:01:45;;;;;;;8.30;7.50;;;21.40;52.20;;;;;;4884585;29;20941;-59
2022/12/20 02:04:15;;;;;;;8.90;8.10;;;21.40;52.20;;;;;;4889283;29;20501;-60
2022/12/20 02:06:43;;;;;;;9.27;8.37;;;21.40;52.20;;;;;;4893979;29;20505;-60
2022/12/20 02:09:14;;;;;;;9.33;8.27;;;21.40;52.10;;;;;;4888387;29;20470;-61
2022/12/20 02:11:56;;;;;;;8.63;7.87;;;21.40;52.10;;;;;;4894461;29;20517;-60
2022/12/20 02:14:42;;;;;;;9.30;8.37;;;21.40;52.00;;;;;;4894912;29;20455;-60
2022/12/20 02:17:19;;;;;;;8.90;8.20;;;21.40;52.00;;;;;;4895887;29;20556;-60
2022/12/20 02:20:20;;;;;;;8.73;7.93;;;21.40;52.00;;;;;;4891202;29;20592;-60
2022/12/20 02:23:04;;;;;;;7.97;7.37;;;21.40;52.00;;;;;;4883258;29;20475;-62
2022/12/20 02:25:48;;;;;;;9.20;8.40;;;21.40;52.00;;;;;;4896039;29;20556;-60
2022/12/20 02:28:31;;;;;;;9.30;8.50;;;21.40;52.00;;;;;;4890183;29;20957;-60
2022/12/20 02:31:07;;;;;;;9.10;8.30;;;21.40;52.00;;;;;;4882760;29;20456;-60
2022/12/20 02:33:35;;;;;;;8.63;7.83;;;21.40;52.00;;;;;;4890376;29;20560;-60
2022/12/20 02:36:04;;;;;;;8.33;7.63;;;21.40;52.00;;;;;;4895197;29;20494;-59
2022/12/20 02:38:34;;;;;;;9.60;8.63;;;21.40;52.00;;;;;;4890692;29;20943;-59
2022/12/20 02:41:06;;;;;;;9.17;8.37;;;21.40;52.00;;;;;;4895620;29;20484;-61
2022/12/20 02:46:26;;;;;;;8.67;7.97;;;21.40;51.90;;;;;;4904826;29;20509;-60
2022/12/20 02:48:58;;;;;;;9.00;8.20;;;21.40;51.90;;;;;;4893503;29;20469;-60
2022/12/20 02:51:28;;;;;;;8.60;7.90;;;21.40;51.90;;;;;;4893794;29;20507;-60
2022/12/20 02:53:57;;;;;;;8.10;7.47;;;21.40;51.90;;;;;;4891562;29;20546;-60
2022/12/20 02:56:32;;;;;;;9.20;8.50;;;21.40;51.90;;;;;;4879987;29;20974;-60
2022/12/20 02:59:06;;;;;;;8.80;8.00;;;21.40;51.90;;;;;;4886815;29;20533;-60
2022/12/20 03:01:40;;;;;;;8.30;7.60;;;21.40;51.90;;;;;;4897472;29;20472;-60
2022/12/20 03:04:09;;;;;;;8.83;8.07;;;21.40;51.90;;;;;;4888846;29;20502;-60
2022/12/20 03:06:39;;;;;;;8.57;7.87;;;21.40;51.90;;;;;;4894319;29;20823;-62
2022/12/20 03:09:07;;;;;;;8.90;8.20;;;21.40;51.90;;;;;;4907123;29;20713;-60
2022/12/20 03:11:37;;;;;;;8.97;8.27;;;21.40;51.90;;;;;;4898224;29;20469;-60
2022/12/20 03:14:06;;;;;;;8.60;7.93;;;21.40;51.90;;;;;;4896898;29;20945;-60
2022/12/20 03:16:41;;;;;;;9.20;8.30;;;21.40;51.90;;;;;;4898155;29;20472;-59
2022/12/20 03:19:10;;;;;;;10.23;9.33;;;21.40;51.80;;;;;;4889451;29;20486;-60
2022/12/20 03:21:38;;;;;;;8.80;8.10;;;21.40;51.90;;;;;;4885717;29;20478;-62
2022/12/20 03:24:07;;;;;;;9.63;8.63;;;21.40;51.80;;;;;;4896682;29;20461;-59
2022/12/20 03:26:35;;;;;;;9.10;8.30;;;21.40;51.80;;;;;;4897151;29;20477;-59
2022/12/20 03:29:04;;;;;;;9.47;8.57;;;21.40;51.80;;;;;;4898995;29;20446;-61
2022/12/20 03:31:33;;;;;;;8.50;7.80;;;21.40;51.80;;;;;;4895189;29;20484;-62
2022/12/20 03:34:03;;;;;;;9.97;9.10;;;21.40;51.80;;;;;;4895775;29;20487;-60
2022/12/20 03:36:31;;;;;;;9.67;8.77;;;21.40;51.80;;;;;;4894794;29;20872;-60
2022/12/20 03:39:02;;;;;;;10.00;9.10;;;21.40;51.90;;;;;;4878864;29;20510;-59
2022/12/20 03:41:34;;;;;;;10.53;9.63;;;21.40;51.80;;;;;;4878879;29;20538;-59
2022/12/20 03:44:04;;;;;;;8.50;7.90;;;21.40;51.90;;;;;;4885955;29;20532;-60
2022/12/20 03:46:32;;;;;;;8.17;7.47;;;21.40;51.80;;;;;;4890669;29;20478;-60
2022/12/20 03:49:02;;;;;;;9.37;8.57;;;21.40;51.80;;;;;;4878795;29;20552;-60
2022/12/20 03:51:30;;;;;;;9.50;8.70;;;21.30;51.80;;;;;;4881952;29;20517;-60
2022/12/20 03:53:58;;;;;;;9.00;8.30;;;21.40;51.80;;;;;;4896537;29;20467;-60
2022/12/20 03:56:42;;;;;;;9.90;8.90;;;21.30;51.80;;;;;;4896463;29;20475;-60
2022/12/20 03:59:10;;;;;;;10.23;9.30;;;21.30;51.80;;;;;;4904975;29;20838;-60
2022/12/20 04:01:40;;;;;;;9.00;8.20;;;21.30;51.70;;;;;;4892703;29;20635;-60
2022/12/20 04:04:11;;;;;;;9.80;9.00;;;21.30;51.70;;;;;;4889748;29;20615;-60
2022/12/20 04:06:39;;;;;;;10.87;9.77;;;21.30;51.70;;;;;;4880297;29;20884;-62
2022/12/20 04:09:07;;;;;;;10.33;9.50;;;21.30;51.70;;;;;;4892322;29;20484;-61
2022/12/20 04:11:42;;;;;;;9.63;8.83;;;21.30;51.70;;;;;;4911204;29;20472;-59
2022/12/20 04:14:14;;;;;;;9.17;8.20;;;21.30;51.70;;;;;;4893767;29;20560;-60
2022/12/20 04:16:43;;;;;;;10.57;9.67;;;21.30;51.70;;;;;;4891168;29;20463;-59
2022/12/20 04:19:13;;;;;;;10.07;9.27;;;21.30;51.70;;;;;;4905802;29;20473;-59
2022/12/20 04:21:44;;;;;;;10.03;9.10;;;21.30;51.70;;;;;;4891309;29;20481;-59
2022/12/20 04:24:14;;;;;;;10.47;9.50;;;21.30;51.70;;;;;;4910259;29;20517;-59
2022/12/20 04:27:05;;;;;;;9.83;8.97;;;21.30;51.70;;;;;;4890457;29;20473;-59
2022/12/20 04:29:33;;;;;;;9.80;8.90;;;21.30;51.70;;;;;;4897033;29;21169;-61
2022/12/20 04:32:04;;;;;;;10.40;9.40;;;21.30;51.70;;;;;;4893285;29;20956;-61
2022/12/20 04:34:34;;;;;;;9.37;8.57;;;21.30;51.70;;;;;;4896669;29;20521;-60
2022/12/20 04:37:02;;;;;;;9.60;8.60;;;21.30;51.70;;;;;;4885372;29;20470;-60
2022/12/20 04:39:40;;;;;;;10.20;9.30;;;21.30;51.70;;;;;;4881329;29;20461;-63
2022/12/20 04:42:31;;;;;;;9.77;8.90;;;21.30;51.70;;;;;;4890308;29;20497;-59
2022/12/20 04:44:59;;;;;;;9.60;8.70;;;21.40;51.70;;;;;;4896755;29;20995;-60
2022/12/20 04:47:29;;;;;;;8.80;8.00;;;21.40;51.60;;;;;;4896778;29;20483;-61
2022/12/20 04:49:59;;;;;;;8.67;7.97;;;21.30;51.60;;;;;;4892450;29;20461;-60
2022/12/20 04:55:29;;;;;;;9.33;8.53;;;21.30;51.60;;;;;;4822851;29;20468;-61
2022/12/20 04:57:58;;;;;;;11.20;9.77;;;21.30;51.60;;;;;;4817747;29;20473;-59
2022/12/20 05:00:35;;;;;;;10.80;9.87;;;21.40;51.60;;;;;;4844780;29;20475;-59
2022/12/20 05:03:17;;;;;;;10.00;9.10;;;21.30;51.60;;;;;;4889887;29;20805;-60
2022/12/20 05:05:47;;;;;;;10.30;9.30;;;21.30;51.60;;;;;;4890629;29;20464;-60
2022/12/20 05:08:17;;;;;;;10.00;9.10;;;21.30;51.60;;;;;;4890122;29;20477;-60
2022/12/20 05:10:47;;;;;;;10.30;9.40;;;21.30;51.60;;;;;;4894385;29;20469;-63
2022/12/20 05:13:15;;;;;;;13.27;9.40;;;21.30;51.60;;;;;;4891477;29;20502;-61
2022/12/20 05:15:45;;;;;;;10.60;9.70;;;21.30;51.50;;;;;;4895320;29;20461;-61
2022/12/20 05:18:13;;;;;;;11.13;10.13;;;21.30;51.50;;;;;;4891180;29;20449;-60
2022/12/20 05:26:57;;;;;;;10.40;9.43;;;21.30;51.50;;;;;;4896709;29;20982;-59
2022/12/20 05:29:26;;;;;;;10.30;9.30;;;21.30;51.60;;;;;;4891425;29;20814;-61
2022/12/20 05:31:54;;;;;;;10.07;9.10;;;21.30;51.60;;;;;;4889396;29;21000;-60
2022/12/20 05:34:23;;;;;;;9.77;8.97;;;21.30;51.60;;;;;;4894914;29;20545;-60
2022/12/20 05:36:55;;;;;;;9.47;8.67;;;21.30;51.70;;;;;;4894232;29;20691;-60
2022/12/20 05:39:27;;;;;;;10.20;9.20;;;21.30;51.70;;;;;;4894245;29;20536;-61
2022/12/20 05:41:59;;;;;;;9.50;8.70;;;21.30;51.70;;;;;;4906878;29;20534;-60
2022/12/20 05:44:28;;;;;;;9.27;8.57;;;21.30;51.70;;;;;;4895841;29;20472;-61
2022/12/20 05:46:57;;;;;;;9.03;8.23;;;21.30;51.60;;;;;;4891482;29;20587;-61
2022/12/20 05:49:29;;;;;;;10.60;9.60;;;21.30;51.60;;;;;;4893298;29;20521;-61
2022/12/20 05:52:02;;;;;;;9.57;8.57;;;21.40;51.70;;;;;;4886455;29;20474;-61
2022/12/20 05:54:30;;;;;;;9.57;8.67;;;21.40;51.90;;;;;;4890757;29;20859;-60
2022/12/20 05:57:31;;;;;;;9.27;8.37;;;21.40;52.00;;;;;;4880365;29;21108;-60
2022/12/20 05:59:59;;;;;;;10.20;9.23;;;21.40;52.00;;;;;;4894819;29;20871;-61
2022/12/20 06:02:27;;;;;;;9.13;8.33;;;21.40;52.00;;;;;;4889620;29;20478;-61
2022/12/20 06:05:01;;;;;;;10.40;9.50;;;21.40;52.00;;;;;;4893765;29;20873;-61
2022/12/20 06:07:32;;;;;;;9.97;9.07;;;21.50;52.00;;;;;;4886082;29;20533;-62
2022/12/20 06:10:00;;;;;;;9.83;9.03;;;21.50;51.90;;;;;;4890899;29;20832;-60
2022/12/20 06:12:47;;;;;;;9.80;8.80;;;21.50;51.90;;;;;;4889163;29;20932;-60
2022/12/20 06:15:16;;;;;;;9.37;8.57;;;21.50;52.00;;;;;;4896003;29;21191;-61
2022/12/20 06:17:44;;;;;;;9.57;8.77;;;21.50;52.10;;;;;;4894695;29;20469;-61
2022/12/20 06:20:13;;;;;;;9.80;9.00;;;21.50;52.20;;;;;;4890242;29;20822;-61
2022/12/20 06:22:46;;;;;;;8.97;8.17;;;21.50;52.30;;;;;;4886234;29;20568;-60
2022/12/20 06:25:16;;;;;;;8.80;8.00;;;21.50;52.40;;;;;;4892726;29;20469;-61
2022/12/20 06:27:44;;;;;;;8.63;7.93;;;21.50;52.40;;;;;;4883589;29;20478;-62
2022/12/20 06:30:16;;;;;;;9.20;8.30;;;21.50;52.50;;;;;;4903729;29;20565;-60
2022/12/20 06:33:14;;;;;;;9.40;8.60;;;21.40;52.60;;;;;;4883430;29;20454;-60
2022/12/20 06:35:42;;;;;;;9.23;8.43;;;21.40;52.60;;;;;;4884448;29;20904;-61
2022/12/20 06:38:12;;;;;;;9.07;8.37;;;21.40;52.70;;;;;;4886073;29;20469;-61
2022/12/20 06:40:40;;;;;;;10.03;9.13;;;21.40;52.70;;;;;;4892131;29;20521;-61
2022/12/20 06:43:08;;;;;;;10.40;9.30;;;21.40;52.70;;;;;;4893306;29;20631;-60
2022/12/20 06:45:36;;;;;;;9.83;8.93;;;21.40;52.70;;;;;;4895043;29;20898;-62
2022/12/20 06:48:10;;;;;;;10.20;9.20;;;21.40;52.60;;;;;;4886288;29;20994;-61
2022/12/20 06:50:39;;;;;;;9.93;9.03;;;21.40;52.50;;;;;;4895085;29;20497;-61
2022/12/20 06:53:08;;;;;;;11.00;9.90;;;21.40;52.50;;;;;;4896311;29;20469;-60
2022/12/20 06:55:39;;;;;;;10.60;9.70;;;21.40;52.50;;;;;;4890343;29;20945;-60
2022/12/20 06:58:07;;;;;;;9.60;8.70;;;21.40;52.50;;;;;;4891158;29;20469;-60
2022/12/20 07:00:37;;;;;;;9.40;8.60;;;21.40;52.50;;;;;;4891791;29;20476;-61
2022/12/20 07:03:06;;;;;;;10.03;9.10;;;21.40;52.50;;;;;;4893222;29;20829;-60
2022/12/20 07:05:34;;;;;;;10.73;9.40;;;21.40;52.50;;;;;;4898991;29;20469;-60
2022/12/20 07:08:03;;;;;;;9.97;9.10;;;21.40;52.50;;;;;;4894090;29;20499;-60
2022/12/20 07:10:31;;;;;;;10.03;9.10;;;21.40;52.40;;;;;;4896825;29;20501;-61
2022/12/20 07:13:00;;;;;;;10.10;9.13;;;21.40;52.40;;;;;;4897205;29;20544;-60
2022/12/20 07:15:29;;;;;;;10.53;9.53;;;21.40;52.40;;;;;;4892648;29;20484;-60
2022/12/20 07:17:57;;;;;;;9.67;8.50;;;21.40;52.20;;;;;;4882635;29;20468;-62
2022/12/20 07:20:27;;;;;;;10.00;9.13;;;21.40;52.20;;;;;;4889191;29;20466;-60
2022/12/20 07:22:55;;;;;;;10.20;9.30;;;21.40;52.60;;;;;;4890133;29;20612;-59
2022/12/20 07:25:24;;;;;;;10.23;9.23;;;21.40;53.10;;;;;;4887758;29;20490;-60
2022/12/20 07:27:52;;;;;;;11.60;8.80;;;21.50;53.30;;;;;;4893813;29;20452;-63
2022/12/20 07:30:22;;;;;;;10.10;9.20;;;21.50;53.40;;;;;;4887254;29;20915;-60
2022/12/20 07:32:51;;;;;;;11.20;10.10;;;21.50;53.50;;;;;;4896288;29;20458;-61
2022/12/20 07:35:19;;;;;;;10.23;8.90;;;21.50;53.40;;;;;;4895389;29;20542;-60
2022/12/20 07:37:47;;;;;;;9.67;8.77;;;21.50;53.40;;;;;;4889041;29;20465;-62
2022/12/20 07:40:16;;;;;;;10.73;9.83;;;21.60;53.30;;;;;;4887136;29;20565;-60
2022/12/20 07:42:45;;;;;;;10.13;9.23;;;21.50;53.40;;;;;;4886232;29;20510;-60
2022/12/20 07:45:16;;;;;;;9.87;8.67;;;21.60;53.40;;;;;;4893796;29;20473;-62
2022/12/20 07:47:45;;;;;;;9.30;8.23;;;21.60;53.50;;;;;;4894373;29;20869;-62
2022/12/20 07:50:14;;;;;;;10.60;9.63;;;21.60;53.60;;;;;;4895321;29;20451;-63
2022/12/20 07:52:46;;;;;;;11.57;9.57;;;21.60;53.50;;;;;;4893522;29;20484;-64
2022/12/20 07:55:15;;;;;;;11.53;10.53;;;21.60;53.50;;;;;;4896886;29;20801;-64
2022/12/20 07:57:47;;;;;;;9.33;8.43;;;21.70;53.50;;;;;;4894716;29;20459;-62
2022/12/20 08:00:17;;;;;;;9.20;8.43;;;21.70;53.40;;;;;;4896215;29;20846;-62
2022/12/20 08:02:52;;;;;;;9.60;8.60;;;21.70;53.40;;;;;;4894687;29;20485;-64
2022/12/20 08:05:22;;;;;;;10.57;9.53;;;21.70;53.40;;;;;;4893415;29;20520;-64
2022/12/20 08:07:51;;;;;;;10.93;9.83;;;21.70;53.40;;;;;;4895783;29;20457;-65
2022/12/20 08:10:26;;;;;;;9.83;8.93;;;21.70;53.40;;;;;;4896962;29;20460;-67
2022/12/20 08:12:55;;;;;;;10.13;9.17;;;21.70;53.40;;;;;;4891052;29;20482;-65
2022/12/20 08:15:24;;;;;;;9.60;8.70;;;21.70;53.40;;;;;;4891879;29;20460;-64
2022/12/20 08:17:54;;;;;;;8.80;8.00;;;21.70;53.40;;;;;;4893350;29;20523;-65
2022/12/20 08:20:22;;;;;;;10.83;8.83;;;21.70;53.30;;;;;;4883520;29;20460;-65
2022/12/20 08:22:50;;;;;;;10.83;9.10;;;21.70;53.50;;;;;;4886095;29;20600;-65
2022/12/20 08:25:20;;;;;;;9.70;9.00;;;21.70;53.50;;;;;;4896509;29;20924;-65
2022/12/20 08:27:48;;;;;;;9.50;8.57;;;21.70;53.50;;;;;;4893493;29;20563;-65
2022/12/20 08:30:17;;;;;;;10.20;9.40;;;21.70;53.40;;;;;;4894054;29;20458;-65
2022/12/20 08:32:45;;;;;;;9.67;8.67;;;21.70;53.30;;;;;;4895761;29;20477;-66
2022/12/20 08:35:15;;;;;;;10.43;9.37;;;21.70;53.20;;;;;;4897044;29;20437;-66
2022/12/20 08:37:43;;;;;;;10.17;9.17;;;21.70;53.20;;;;;;4895741;29;20468;-65
2022/12/20 08:40:12;;;;;;;10.30;9.40;;;21.70;53.10;;;;;;4896644;29;20966;-65
2022/12/20 08:42:40;;;;;;;11.20;10.10;;;21.70;53.10;;;;;;4895800;29;20576;-66
2022/12/20 08:45:09;;;;;;;10.60;8.50;;;21.70;53.10;;;;;;4896638;29;20546;-66
2022/12/20 08:47:37;;;;;;;9.77;8.87;;;21.70;53.00;;;;;;4896317;29;20879;-66
2022/12/20 08:50:06;;;;;;;9.77;8.97;;;21.70;53.00;;;;;;4896920;29;20454;-65
2022/12/20 08:52:36;;;;;;;9.60;8.70;;;21.70;53.10;;;;;;4896390;29;20488;-65
2022/12/20 08:55:05;;;;;;;10.10;9.10;;;21.70;53.10;;;;;;4896894;29;20445;-65
2022/12/20 08:57:34;;;;;;;9.23;8.43;;;21.70;53.00;;;;;;4894087;29;20468;-66
2022/12/20 09:00:02;;;;;;;9.80;9.00;;;21.60;53.00;;;;;;4894789;29;20500;-65
2022/12/20 09:02:31;;;;;;;9.20;8.40;;;21.70;53.00;;;;;;4896908;29;20490;-65
2022/12/20 09:04:59;;;;;;;9.97;9.17;;;21.60;53.00;;;;;;4897293;29;20448;-65
2022/12/20 09:07:28;;;;;;;8.87;8.07;;;21.60;52.90;;;;;;4896331;29;20500;-65
2022/12/20 09:09:58;;;;;;;7.90;7.30;;;21.70;52.90;;;;;;4896939;29;20481;-66
2022/12/20 09:12:26;;;;;;;11.00;10.00;;;21.60;52.90;;;;;;4889708;29;20497;-66
2022/12/20 09:14:54;;;;;;;9.80;9.00;;;21.60;52.90;;;;;;4894164;29;20938;-65
2022/12/20 09:17:22;;;;;;;9.80;9.00;;;21.60;52.90;;;;;;4895319;29;20558;-65
2022/12/20 09:19:50;;;;;;;8.90;8.10;;;21.60;52.90;;;;;;4896587;29;21021;-66
2022/12/20 09:22:18;;;;;;;8.80;8.00;;;21.60;52.80;;;;;;4885399;29;20442;-65
2022/12/20 09:24:47;;;;;;;10.00;8.80;;;21.60;52.80;;;;;;4894561;29;20474;-65
2022/12/20 09:27:16;;;;;;;9.60;8.70;;;21.60;52.80;;;;;;4880720;29;20465;-65
2022/12/20 09:29:44;;;;;;;8.37;7.67;;;21.60;52.80;;;;;;4881674;29;20457;-66
2022/12/20 09:32:13;;;;;;;8.93;8.13;;;21.60;52.80;;;;;;4896766;29;20537;-65
2022/12/20 09:34:41;;;;;;;9.03;8.10;;;21.60;52.70;;;;;;4894425;29;20891;-65
2022/12/20 09:37:09;;;;;;;9.83;9.00;;;21.60;52.70;;;;;;4895392;29;20497;-65
2022/12/20 09:39:37;;;;;;;7.70;7.13;;;21.60;52.70;;;;;;4896026;29;20836;-65
2022/12/20 09:42:08;;;;;;;8.87;8.17;;;21.60;52.70;;;;;;4894508;29;20501;-65
2022/12/20 09:44:40;;;;;;;8.60;7.90;;;21.60;52.60;;;;;;4883464;29;20492;-66
2022/12/20 09:47:17;;;;;;;9.43;8.53;;;21.70;52.60;;;;;;4894867;29;20454;-66
2022/12/20 09:49:49;;;;;;;9.40;8.60;;;21.60;52.60;;;;;;4891079;29;20460;-65
2022/12/20 09:52:29;;;;;;;10.50;7.87;;;21.70;52.60;;;;;;4895093;29;20983;-65
2022/12/20 09:55:06;;;;;;;9.00;8.30;;;21.60;52.60;;;;;;4896043;29;20787;-65
2022/12/20 09:57:47;;;;;;;8.87;7.97;;;21.60;52.50;;;;;;4896546;29;20445;-66
2022/12/20 10:00:19;;;;;;;8.53;7.73;;;21.60;52.50;;;;;;4896144;29;20469;-66
2022/12/20 10:02:48;;;;;;;8.23;7.43;;;21.60;52.50;;;;;;4893111;29;20471;-65
2022/12/20 10:05:44;;;;;;;9.13;8.33;;;21.60;52.50;;;;;;4896845;29;20470;-66
2022/12/20 10:08:23;;;;;;;7.60;7.00;;;21.60;52.50;;;;;;4892681;29;20465;-66
2022/12/20 10:10:56;;;;;;;9.00;8.10;;;21.60;52.40;;;;;;4887547;29;20977;-66
2022/12/20 10:13:43;;;;;;;8.87;8.07;;;21.70;52.40;;;;;;4889393;29;21016;-65
2022/12/20 10:16:27;;;;;;;7.90;7.23;;;21.70;52.40;;;;;;4882108;29;20520;-65
2022/12/20 10:19:08;;;;;;;7.90;7.20;;;21.70;52.50;;;;;;4889093;29;20454;-66
2022/12/20 10:21:45;;;;;;;8.33;7.63;;;21.60;52.60;;;;;;4882293;29;20588;-66
2022/12/20 10:24:18;;;;;;;8.93;8.03;;;21.70;52.50;;;;;;4888023;29;20574;-66
2022/12/20 10:26:49;;;;;;;9.00;8.03;;;21.70;52.50;;;;;;4894737;29;20460;-65
2022/12/20 10:29:17;;;;;;;8.20;7.53;;;21.70;52.40;;;;;;4886991;29;20547;-65
2022/12/20 10:31:47;;;;;;;7.60;6.90;;;21.70;52.40;;;;;;4886760;29;20464;-64
2022/12/20 10:34:16;;;;;;;8.50;7.80;;;21.70;52.40;;;;;;4896555;29;20491;-65
2022/12/20 10:36:44;;;;;;;8.60;7.80;;;21.80;52.60;;;;;;4895894;29;20922;-64
2022/12/20 10:39:12;;;;;;;8.60;7.80;;;21.90;52.80;;;;;;4897260;29;20539;-68
2022/12/20 10:41:50;;;;;;;7.90;7.20;;;22.00;52.90;;;;;;4893001;29;20497;-66
2022/12/20 10:44:23;;;;;;;6.90;6.30;;;22.10;52.90;;;;;;4891993;29;20484;-65
2022/12/20 10:46:55;;;;;;;8.10;7.30;;;22.20;52.90;;;;;;4893928;29;20462;-64
2022/12/20 10:49:30;;;;;;;7.93;7.23;;;22.30;52.90;;;;;;4892802;29;20545;-64
2022/12/20 10:52:01;;;;;;;8.07;7.47;;;22.40;52.90;;;;;;4893515;29;21360;-64
2022/12/20 10:54:32;;;;;;;8.20;7.50;;;22.50;52.80;;;;;;4889841;29;20930;-64
2022/12/20 10:57:05;;;;;;;6.93;6.33;;;22.60;52.80;;;;;;4890342;29;20568;-65
2022/12/20 10:59:44;;;;;;;7.60;7.00;;;22.60;52.60;;;;;;4890106;29;20458;-64
2022/12/20 11:02:26;;;;;;;7.67;6.53;;;22.70;52.60;;;;;;4895537;29;20553;-64
2022/12/20 11:05:23;;;;;;;8.43;7.63;;;22.70;52.70;;;;;;4891103;29;20485;-64
2022/12/20 11:07:56;;;;;;;6.40;5.90;;;22.70;52.80;;;;;;4894626;29;20540;-63
2022/12/20 11:10:45;;;;;;;7.80;7.00;;;22.70;52.80;;;;;;4889733;29;20949;-64
2022/12/20 11:13:22;;;;;;;7.50;6.73;;;22.70;52.90;;;;;;4891653;29;20533;-64
2022/12/20 11:15:55;;;;;;;8.50;7.53;;;22.60;52.90;;;;;;4896944;29;20537;-64
2022/12/20 11:18:35;;;;;;;7.00;6.50;;;22.70;53.00;;;;;;4891109;29;20462;-64
2022/12/20 11:21:17;;;;;;;10.23;7.20;;;22.70;53.00;;;;;;4886242;29;20477;-63
2022/12/20 11:24:02;;;;;;;7.30;6.70;;;22.80;53.00;;;;;;4888628;29;20477;-64
2022/12/20 11:26:43;;;;;;;6.73;6.13;;;22.80;52.90;;;;;;4893066;29;20473;-65
2022/12/20 11:29:28;;;;;;;6.47;5.87;;;22.90;52.80;;;;;;4893047;29;20446;-64
2022/12/20 11:32:05;;;;;;;7.37;6.77;;;23.00;52.70;;;;;;4890142;29;20469;-66
2022/12/20 11:34:43;;;;;;;7.37;6.67;;;23.10;52.60;;;;;;4894172;29;20492;-64
2022/12/20 11:37:22;;;;;;;7.17;6.57;;;23.10;52.60;;;;;;4895111;29;20876;-64
2022/12/20 11:40:11;;;;;;;6.60;6.10;;;23.10;52.60;;;;;;4895884;29;20574;-64
2022/12/20 11:42:53;;;;;;;8.23;7.53;;;23.10;52.60;;;;;;4880448;29;20499;-64
2022/12/20 11:45:28;;;;;;;7.07;6.53;;;23.10;52.60;;;;;;4895072;29;20570;-63
2022/12/20 11:48:35;;;;;;;6.80;6.20;;;23.00;52.20;;;;;;4891677;29;20469;-63
2022/12/20 11:51:13;;;;;;;7.33;6.83;;;22.90;51.90;;;;;;4878449;29;20579;-64
2022/12/20 11:53:53;;;;;;;7.60;7.07;;;22.80;51.80;;;;;;4886829;29;20524;-66
2022/12/20 11:56:26;;;;;;;8.23;7.43;;;22.70;51.70;;;;;;4888218;29;20580;-64
2022/12/20 11:59:00;;;;;;;6.50;5.90;;;22.70;51.70;;;;;;4891371;29;20478;-67
2022/12/20 12:01:34;;;;;;;7.57;6.87;;;22.70;51.80;;;;;;4888119;29;20466;-64
2022/12/20 12:04:11;;;;;;;7.33;6.60;;;22.60;51.80;;;;;;4887775;29;20898;-65
2022/12/20 12:06:45;;;;;;;7.00;6.40;;;22.60;51.90;;;;;;4889756;29;20985;-67
2022/12/20 12:09:22;;;;;;;6.80;6.30;;;22.60;52.00;;;;;;4885124;29;20482;-65
2022/12/20 12:11:56;;;;;;;6.30;5.80;;;22.50;52.00;;;;;;4887339;29;20459;-66
2022/12/20 12:14:52;;;;;;;5.73;5.23;;;22.50;52.10;;;;;;4885976;29;20472;-64
2022/12/20 12:17:26;;;;;;;7.57;6.83;;;22.50;52.20;;;;;;4890198;29;21031;-65
2022/12/20 12:20:00;;;;;;;7.70;6.97;;;22.50;52.30;;;;;;4890186;29;20545;-64
2022/12/20 12:22:35;;;;;;;6.83;6.23;;;22.50;52.30;;;;;;4886147;29;20555;-65
2022/12/20 12:25:14;;;;;;;7.63;6.93;;;22.40;52.30;;;;;;4895377;29;20473;-63
2022/12/20 12:27:42;;;;;;;7.40;6.70;;;22.40;52.70;;;;;;4889615;29;21018;-64
2022/12/20 12:30:13;;;;;;;6.80;6.20;;;22.40;52.80;;;;;;4891185;29;20465;-64
2022/12/20 12:32:47;;;;;;;7.33;6.60;;;22.40;52.70;;;;;;4890728;29;20542;-64
2022/12/20 12:35:37;;;;;;;9.00;6.37;;;22.40;53.00;;;;;;4889837;29;20554;-66
2022/12/20 12:38:27;;;;;;;7.70;6.90;;;22.30;53.20;;;;;;4887545;29;20520;-64
2022/12/20 12:41:39;;;;;;;9.60;7.20;;;22.30;53.30;;;;;;4889423;29;20491;-63
2022/12/20 12:44:32;;;;;;;7.67;6.87;;;22.30;53.40;;;;;;4876566;29;20817;-64
2022/12/20 12:47:06;;;;;;;7.73;6.70;;;22.30;53.40;;;;;;4884926;29;20990;-63
2022/12/20 12:49:34;;;;;;;7.70;6.63;;;22.30;53.30;;;;;;4892653;29;20450;-65
2022/12/20 12:52:05;;;;;;;7.90;7.30;;;22.30;53.30;;;;;;4886059;29;20829;-67
2022/12/20 12:54:39;;;;;;;7.83;6.53;;;22.30;53.40;;;;;;4887031;29;20463;-64
2022/12/20 12:57:12;;;;;;;7.93;7.10;;;22.30;53.40;;;;;;4885301;29;20954;-65
2022/12/20 12:59:44;;;;;;;7.57;6.87;;;22.30;53.40;;;;;;4887578;29;20463;-65
2022/12/20 13:02:36;;;;;;;7.13;6.03;;;22.20;53.40;;;;;;4896061;29;20450;-63
2022/12/20 13:05:35;;;;;;;7.47;6.77;;;22.20;53.40;;;;;;4890353;29;20479;-69
2022/12/20 13:08:03;;;;;;;8.40;6.70;;;22.20;53.50;;;;;;4888208;29;20993;-66
2022/12/20 13:11:00;;;;;;;7.10;6.40;;;22.30;53.80;;;;;;4891465;29;20454;-65
2022/12/20 13:13:28;;;;;;;7.53;6.83;;;22.40;53.90;;;;;;4891502;29;20469;-65
2022/12/20 13:16:26;;;;;;;6.70;6.07;;;22.50;53.90;;;;;;4892690;29;20554;-65
2022/12/20 13:19:16;;;;;;;7.80;6.20;;;22.50;53.90;;;;;;4891877;29;20455;-65
2022/12/20 13:21:47;;;;;;;7.93;7.13;;;22.60;53.90;;;;;;4884150;29;20918;-70
2022/12/20 13:24:49;;;;;;;7.10;5.77;;;22.70;53.80;;;;;;4886012;29;22005;-67
2022/12/20 13:27:40;;;;;;;6.57;5.97;;;22.70;53.90;;;;;;4892461;29;20450;-65